KLGF/LGF METAR and TAF weather

Enter ICAO airport designator
Station Type Date Time Source
KLGF METAR 2020/02/28 08:58 UTC NOAA

KLGF 280858Z AUTO 00000KT 10SM CLR 16/M03 A3014 RMK AO2 SLP205 T01561033 57014 $


Station Type Date Time Source
KLGF Decoded METAR 2020/02/28 08:58 UTC NOAA

Station name not available
Feb 28, 2020 - 03:58 AM EST / 2020.02.28 0858 UTC
Wind: Calm:0
Visibility: 10 mile(s):0
Sky conditions: clear
Temperature: 60.1 F (15.6 C)
Dew Point: 26.1 F (-3.3 C)
Relative Humidity: 27%
Pressure (altimeter): 30.14 in. Hg (1020 hPa)
Pressure tendency: 0.04 inches (1.4 hPa) lower than three hours ago
ob: KLGF 280858Z AUTO 00000KT 10SM CLR 16/M03 A3014 RMK AO2 SLP205 T01561033 57014
cycle: 9

Station Type Date Time Source
KLGF TAF UTC NOAA

Error!

Example: see airport list